Terminal Aerodrome Forecast
Issued by NWS

Home | Current Version | Previous Version | Text Only | Print | Product List | Glossary On
Versions: 1 2 3 4 5 6 7 8 9 10 11 12
000
FTUS42 KTBW 290500
TAFPIE
TAF
KPIE 290540Z 2906/3006 24007KT P6SM VCSH SCT025 SCT080 BKN250
     FM291200 26010KT P6SM VCTS SCT025CB BKN100
     FM291800 26013KT P6SM VCTS SCT030CB BKN100
     FM292200 26010KT P6SM SCT030 SCT100 BKN250
     FM300100 25006KT P6SM SCT025 BKN250=

USA.gov is the U.S. government's official web portal to all federal, state and local government web resources and services.